Terminal Aerodrome Forecast
Issued by NWS

Home | Current Version | Previous Version | Graphics & Text | Print | Product List | Glossary On
Versions: 1 2 3 4 5 6 7 8 9 10 11 12 13 14 15 16 17 18 19 20 21
000
FTUS43 KMPX 222339
TAFAXN
TAF
KAXN 222339Z 2300/2324 13006KT P6SM FEW250
     FM230200 10004KT P6SM BKN250
     FM231400 13013G18KT P6SM SCT050 BKN090
      TEMPO 2316/2320 3SM TSRA BKN035CB
     FM232000 16011KT 6SM -SHRA BKN050=

USA.gov is the U.S. government's official web portal to all federal, state and local government web resources and services.